sensor_id;sensor_type;location;lat;lon;timestamp;pressure;altitude;pressure_sealevel;temperature;humidity
9343;BME280;4710;51.382;7.244;2022-07-23T00:00:32;99683.34;;;32.58;44.25
9343;BME280;4710;51.382;7.244;2022-07-23T00:13:40;99665.31;;;33.84;41.20
9343;BME280;4710;51.382;7.244;2022-07-23T00:16:24;99672.55;;;33.12;42.36
9343;BME280;4710;51.382;7.244;2022-07-23T00:29:51;99654.38;;;33.19;42.50
9343;BME280;4710;51.382;7.244;2022-07-23T00:32:49;99652.11;;;33.22;42.28
9343;BME280;4710;51.382;7.244;2022-07-23T00:35:39;99651.30;;;33.08;42.95
9343;BME280;4710;51.382;7.244;2022-07-23T00:59:57;99635.30;;;33.07;42.67
9343;BME280;4710;51.382;7.244;2022-07-23T01:02:41;99632.88;;;32.95;43.03
9343;BME280;4710;51.382;7.244;2022-07-23T01:16:12;99641.78;;;32.91;43.47
9343;BME280;4710;51.382;7.244;2022-07-23T01:19:02;99636.51;;;33.03;43.47
9343;BME280;4710;51.382;7.244;2022-07-23T01:21:58;99633.39;;;33.08;43.05
9343;BME280;4710;51.382;7.244;2022-07-23T01:24:45;99629.79;;;33.07;43.02
9343;BME280;4710;51.382;7.244;2022-07-23T01:37:57;99636.98;;;33.50;42.16
9343;BME280;4710;51.382;7.244;2022-07-23T01:40:43;99638.84;;;33.39;42.38
9343;BME280;4710;51.382;7.244;2022-07-23T01:43:26;99636.06;;;33.37;42.38
9343;BME280;4710;51.382;7.244;2022-07-23T02:07:22;99610.63;;;33.02;42.46
9343;BME280;4710;51.382;7.244;2022-07-23T02:10:00;99617.42;;;32.92;43.34
9343;BME280;4710;51.382;7.244;2022-07-23T02:12:40;99612.54;;;32.99;43.10
9343;BME280;4710;51.382;7.244;2022-07-23T02:15:18;99606.66;;;33.08;42.83
9343;BME280;4710;51.382;7.244;2022-07-23T02:18:01;99609.88;;;33.16;42.82
9343;BME280;4710;51.382;7.244;2022-07-23T02:20:53;99609.70;;;33.28;42.87
9343;BME280;4710;51.382;7.244;2022-07-23T02:34:22;99621.59;;;32.63;43.88
9343;BME280;4710;51.382;7.244;2022-07-23T02:37:08;99619.22;;;32.71;43.58
9343;BME280;4710;51.382;7.244;2022-07-23T02:39:45;99616.66;;;32.80;43.21
9343;BME280;4710;51.382;7.244;2022-07-23T02:42:35;99612.42;;;32.84;43.20
9343;BME280;4710;51.382;7.244;2022-07-23T02:45:12;99609.98;;;32.90;42.67
9343;BME280;4710;51.382;7.244;2022-07-23T02:58:38;99613.71;;;32.32;42.58
9343;BME280;4710;51.382;7.244;2022-07-23T03:01:21;99615.89;;;32.30;42.75
9343;BME280;4710;51.382;7.244;2022-07-23T03:03:59;99619.12;;;31.28;44.35
9343;BME280;4710;51.382;7.244;2022-07-23T03:06:36;99626.03;;;31.05;45.51
9343;BME280;4710;51.382;7.244;2022-07-23T03:09:16;99624.94;;;31.31;45.52
9343;BME280;4710;51.382;7.244;2022-07-23T03:22:24;99612.48;;;32.31;43.13
9343;BME280;4710;51.382;7.244;2022-07-23T03:35:32;99606.88;;;32.34;42.96
9343;BME280;4710;51.382;7.244;2022-07-23T03:38:09;99603.77;;;32.57;42.67
9343;BME280;4710;51.382;7.244;2022-07-23T03:40:46;99603.80;;;32.59;42.19
9343;BME280;4710;51.382;7.244;2022-07-23T03:43:24;99601.09;;;32.51;42.48
9343;BME280;4710;51.382;7.244;2022-07-23T03:46:09;99609.73;;;32.46;42.67
9343;BME280;4710;51.382;7.244;2022-07-23T03:48:55;99611.73;;;32.40;42.45
9343;BME280;4710;51.382;7.244;2022-07-23T03:51:33;99611.08;;;32.44;43.00
9343;BME280;4710;51.382;7.244;2022-07-23T03:54:10;99614.63;;;32.42;43.04
9343;BME280;4710;51.382;7.244;2022-07-23T03:56:52;99612.09;;;32.49;43.05
9343;BME280;4710;51.382;7.244;2022-07-23T03:59:39;99618.40;;;32.76;42.35
9343;BME280;4710;51.382;7.244;2022-07-23T04:02:25;99623.91;;;32.73;42.44
9343;BME280;4710;51.382;7.244;2022-07-23T04:05:07;99621.25;;;32.86;42.26
9343;BME280;4710;51.382;7.244;2022-07-23T04:07:55;99620.86;;;32.88;42.09
9343;BME280;4710;51.382;7.244;2022-07-23T04:10:42;99625.26;;;32.60;42.76
9343;BME280;4710;51.382;7.244;2022-07-23T04:23:53;99629.38;;;32.31;43.71
9343;BME280;4710;51.382;7.244;2022-07-23T04:26:32;99625.58;;;31.46;46.54
9343;BME280;4710;51.382;7.244;2022-07-23T04:29:15;99615.53;;;32.21;44.91
9343;BME280;4710;51.382;7.244;2022-07-23T04:31:52;99614.42;;;32.33;44.30
9343;BME280;4710;51.382;7.244;2022-07-23T04:34:29;99626.84;;;32.38;44.36
9343;BME280;4710;51.382;7.244;2022-07-23T04:37:13;99632.16;;;32.10;44.49
9343;BME280;4710;51.382;7.244;2022-07-23T04:39:50;99627.48;;;32.45;44.01
9343;BME280;4710;51.382;7.244;2022-07-23T04:42:33;99638.48;;;31.27;47.66
9343;BME280;4710;51.382;7.244;2022-07-23T04:45:10;99647.26;;;32.31;45.43
9343;BME280;4710;51.382;7.244;2022-07-23T04:47:54;99647.15;;;30.94;48.31
9343;BME280;4710;51.382;7.244;2022-07-23T04:50:35;99653.66;;;31.40;49.06
9343;BME280;4710;51.382;7.244;2022-07-23T04:53:14;99650.30;;;31.97;47.12
9343;BME280;4710;51.382;7.244;2022-07-23T04:55:56;99657.58;;;31.74;47.71
9343;BME280;4710;51.382;7.244;2022-07-23T04:58:36;99663.38;;;31.88;46.62
9343;BME280;4710;51.382;7.244;2022-07-23T05:01:13;99659.98;;;32.24;45.91
9343;BME280;4710;51.382;7.244;2022-07-23T05:03:52;99660.83;;;32.53;45.34
9343;BME280;4710;51.382;7.244;2022-07-23T05:06:33;99658.36;;;32.52;44.71
9343;BME280;4710;51.382;7.244;2022-07-23T05:09:16;99669.28;;;32.44;44.83
9343;BME280;4710;51.382;7.244;2022-07-23T05:11:59;99678.80;;;29.25;53.86
9343;BME280;4710;51.382;7.244;2022-07-23T05:14:36;99685.50;;;29.91;55.45
9343;BME280;4710;51.382;7.244;2022-07-23T05:17:22;99673.85;;;31.23;51.54
9343;BME280;4710;51.382;7.244;2022-07-23T05:19:59;99678.16;;;29.69;54.15
9343;BME280;4710;51.382;7.244;2022-07-23T05:22:45;99679.20;;;29.91;55.23
9343;BME280;4710;51.382;7.244;2022-07-23T05:25:25;99680.52;;;29.83;55.85
9343;BME280;4710;51.382;7.244;2022-07-23T05:28:02;99691.44;;;29.80;56.54
9343;BME280;4710;51.382;7.244;2022-07-23T05:30:40;99681.50;;;31.19;52.01
9343;BME280;4710;51.382;7.244;2022-07-23T05:35:40;99685.80;;;32.12;48.66
9343;BME280;4710;51.382;7.244;2022-07-23T05:38:22;99693.07;;;32.29;47.22
9343;BME280;4710;51.382;7.244;2022-07-23T05:41:10;99698.16;;;32.18;46.73
9343;BME280;4710;51.382;7.244;2022-07-23T05:45:17;99704.64;;;31.01;49.77
9343;BME280;4710;51.382;7.244;2022-07-23T05:47:59;99700.66;;;31.41;49.78
9343;BME280;4710;51.382;7.244;2022-07-23T05:50:45;99702.58;;;31.89;48.39
9343;BME280;4710;51.382;7.244;2022-07-23T05:53:22;99707.22;;;32.29;46.76
9343;BME280;4710;51.382;7.244;2022-07-23T05:56:03;99705.45;;;32.42;45.61
9343;BME280;4710;51.382;7.244;2022-07-23T06:09:10;99700.11;;;32.57;44.34
9343;BME280;4710;51.382;7.244;2022-07-23T06:11:52;99701.42;;;32.39;45.34
9343;BME280;4710;51.382;7.244;2022-07-23T06:14:35;99708.47;;;32.08;46.10
9343;BME280;4710;51.382;7.244;2022-07-23T06:17:19;99706.59;;;32.33;45.67
9343;BME280;4710;51.382;7.244;2022-07-23T06:20:14;99717.21;;;31.73;47.38
9343;BME280;4710;51.382;7.244;2022-07-23T06:22:51;99715.52;;;30.71;50.08
9343;BME280;4710;51.382;7.244;2022-07-23T06:25:32;99718.42;;;30.73;50.03
9343;BME280;4710;51.382;7.244;2022-07-23T06:28:15;99720.64;;;30.90;50.62
9343;BME280;4710;51.382;7.244;2022-07-23T06:30:52;99724.69;;;30.62;51.34
9343;BME280;4710;51.382;7.244;2022-07-23T06:33:36;99725.09;;;31.24;50.94
9343;BME280;4710;51.382;7.244;2022-07-23T06:46:43;99722.19;;;32.51;45.83
9343;BME280;4710;51.382;7.244;2022-07-23T06:59:54;99739.36;;;32.69;45.83
9343;BME280;4710;51.382;7.244;2022-07-23T07:02:31;99745.98;;;31.41;48.70
9343;BME280;4710;51.382;7.244;2022-07-23T07:05:14;99751.76;;;30.79;49.86
9343;BME280;4710;51.382;7.244;2022-07-23T07:07:55;99750.75;;;31.48;48.87
9343;BME280;4710;51.382;7.244;2022-07-23T07:11:37;99747.22;;;32.07;47.80
9343;BME280;4710;51.382;7.244;2022-07-23T07:14:14;99744.30;;;31.94;47.46
9343;BME280;4710;51.382;7.244;2022-07-23T07:16:53;99747.13;;;31.04;50.27
9343;BME280;4710;51.382;7.244;2022-07-23T07:19:33;99744.08;;;31.69;49.55
9343;BME280;4710;51.382;7.244;2022-07-23T07:22:12;99748.99;;;31.86;49.41
9343;BME280;4710;51.382;7.244;2022-07-23T07:24:50;99765.48;;;30.06;54.92
9343;BME280;4710;51.382;7.244;2022-07-23T07:27:31;99761.19;;;31.38;52.68
9343;BME280;4710;51.382;7.244;2022-07-23T07:30:13;99761.52;;;30.58;52.75
9343;BME280;4710;51.382;7.244;2022-07-23T07:33:00;99762.08;;;29.32;56.13
9343;BME280;4710;51.382;7.244;2022-07-23T07:35:40;99760.91;;;29.63;55.66
9343;BME280;4710;51.382;7.244;2022-07-23T07:38:20;99762.74;;;30.65;52.65
9343;BME280;4710;51.382;7.244;2022-07-23T07:40:58;99769.75;;;28.66;56.97
9343;BME280;4710;51.382;7.244;2022-07-23T07:43:37;99764.80;;;30.01;57.34
9343;BME280;4710;51.382;7.244;2022-07-23T07:46:16;99767.19;;;31.35;52.16
9343;BME280;4710;51.382;7.244;2022-07-23T07:48:59;99768.38;;;30.86;52.45
9343;BME280;4710;51.382;7.244;2022-07-23T07:51:40;99776.50;;;30.42;54.91
9343;BME280;4710;51.382;7.244;2022-07-23T08:04:56;99778.34;;;31.64;51.08
9343;BME280;4710;51.382;7.244;2022-07-23T08:07:40;99780.81;;;31.54;50.19
9343;BME280;4710;51.382;7.244;2022-07-23T08:10:17;99773.72;;;32.05;48.76
9343;BME280;4710;51.382;7.244;2022-07-23T08:13:00;99784.61;;;31.95;49.56
9343;BME280;4710;51.382;7.244;2022-07-23T08:15:49;99783.27;;;31.37;50.34
9343;BME280;4710;51.382;7.244;2022-07-23T08:18:32;99790.47;;;32.65;47.51
9343;BME280;4710;51.382;7.244;2022-07-23T08:21:20;99791.42;;;32.41;48.25
9343;BME280;4710;51.382;7.244;2022-07-23T08:23:59;99792.19;;;31.44;49.95
9343;BME280;4710;51.382;7.244;2022-07-23T08:26:51;99788.47;;;32.45;48.38
9343;BME280;4710;51.382;7.244;2022-07-23T08:40:09;99801.03;;;32.97;46.90
9343;BME280;4710;51.382;7.244;2022-07-23T08:42:47;99799.11;;;32.82;47.39
9343;BME280;4710;51.382;7.244;2022-07-23T08:45:27;99801.90;;;32.31;49.54
9343;BME280;4710;51.382;7.244;2022-07-23T08:48:11;99800.25;;;32.43;48.87
9343;BME280;4710;51.382;7.244;2022-07-23T08:50:55;99795.59;;;32.56;48.84
9343;BME280;4710;51.382;7.244;2022-07-23T08:53:41;99808.39;;;33.15;47.60
9343;BME280;4710;51.382;7.244;2022-07-23T08:56:28;99807.41;;;32.87;46.75
9343;BME280;4710;51.382;7.244;2022-07-23T08:59:10;99810.07;;;31.46;48.42
9343;BME280;4710;51.382;7.244;2022-07-23T09:01:57;99811.66;;;31.92;46.58
9343;BME280;4710;51.382;7.244;2022-07-23T09:04:39;99817.53;;;32.09;45.59
9343;BME280;4710;51.382;7.244;2022-07-23T09:07:16;99818.37;;;31.33;45.53
9343;BME280;4710;51.382;7.244;2022-07-23T09:10:07;99813.05;;;31.94;44.65
9343;BME280;4710;51.382;7.244;2022-07-23T09:12:48;99823.08;;;30.84;46.60
9343;BME280;4710;51.382;7.244;2022-07-23T09:15:26;99813.29;;;32.39;43.39
9343;BME280;4710;51.382;7.244;2022-07-23T09:18:15;99806.23;;;33.33;42.25
9343;BME280;4710;51.382;7.244;2022-07-23T09:21:06;99810.48;;;33.64;42.12
9343;BME280;4710;51.382;7.244;2022-07-23T09:26:03;99820.30;;;33.34;41.54
9343;BME280;4710;51.382;7.244;2022-07-23T09:28:51;99819.82;;;33.92;41.66
9343;BME280;4710;51.382;7.244;2022-07-23T09:31:41;99825.08;;;33.62;41.59
9343;BME280;4710;51.382;7.244;2022-07-23T09:34:24;99822.41;;;33.87;41.33
9343;BME280;4710;51.382;7.244;2022-07-23T09:37:11;99820.09;;;34.16;40.77
9343;BME280;4710;51.382;7.244;2022-07-23T09:39:50;99822.06;;;34.20;40.72
9343;BME280;4710;51.382;7.244;2022-07-23T09:42:28;99823.63;;;32.40;39.53
9343;BME280;4710;51.382;7.244;2022-07-23T09:45:06;99821.60;;;33.24;39.49
9343;BME280;4710;51.382;7.244;2022-07-23T09:49:32;99820.73;;;32.30;40.96
9343;BME280;4710;51.382;7.244;2022-07-23T09:52:11;99815.45;;;33.06;41.08
9343;BME280;4710;51.382;7.244;2022-07-23T09:54:57;99812.03;;;32.00;42.58
9343;BME280;4710;51.382;7.244;2022-07-23T09:57:36;99815.27;;;30.45;46.38
9343;BME280;4710;51.382;7.244;2022-07-23T10:00:17;99817.92;;;30.66;44.81
9343;BME280;4710;51.382;7.244;2022-07-23T10:03:00;99806.22;;;32.24;42.26
9343;BME280;4710;51.382;7.244;2022-07-23T10:05:38;99815.77;;;30.36;44.79
9343;BME280;4710;51.382;7.244;2022-07-23T10:08:18;99812.52;;;32.76;42.08
9343;BME280;4710;51.382;7.244;2022-07-23T10:32:08;99821.67;;;30.37;44.04
9343;BME280;4710;51.382;7.244;2022-07-23T10:35:08;99817.59;;;31.26;43.38
9343;BME280;4710;51.382;7.244;2022-07-23T10:37:40;99816.97;;;31.24;42.97
9343;BME280;4710;51.382;7.244;2022-07-23T10:40:21;99813.81;;;32.38;41.46
9343;BME280;4710;51.382;7.244;2022-07-23T10:42:47;99807.41;;;32.31;42.65
9343;BME280;4710;51.382;7.244;2022-07-23T10:45:34;99812.80;;;32.15;41.36
9343;BME280;4710;51.382;7.244;2022-07-23T10:48:14;99819.06;;;30.36;43.22
9343;BME280;4710;51.382;7.244;2022-07-23T10:51:06;99812.80;;;32.77;40.68
9343;BME280;4710;51.382;7.244;2022-07-23T10:53:58;99812.92;;;31.84;40.80
9343;BME280;4710;51.382;7.244;2022-07-23T10:59:30;99809.02;;;31.72;41.10
9343;BME280;4710;51.382;7.244;2022-07-23T11:02:28;99800.69;;;31.18;41.93
9343;BME280;4710;51.382;7.244;2022-07-23T11:05:20;99807.81;;;32.74;40.10
9343;BME280;4710;51.382;7.244;2022-07-23T11:08:13;99796.92;;;33.57;38.63
9343;BME280;4710;51.382;7.244;2022-07-23T11:11:08;99796.55;;;33.62;38.42
9343;BME280;4710;51.382;7.244;2022-07-23T11:14:04;99803.45;;;33.80;39.06
9343;BME280;4710;51.382;7.244;2022-07-23T11:16:47;99803.10;;;34.11;38.72
9343;BME280;4710;51.382;7.244;2022-07-23T11:19:24;99803.55;;;33.93;39.05
9343;BME280;4710;51.382;7.244;2022-07-23T11:22:08;99802.64;;;31.69;40.42
9343;BME280;4710;51.382;7.244;2022-07-23T11:24:50;99801.86;;;32.82;40.56
9343;BME280;4710;51.382;7.244;2022-07-23T11:27:45;99804.20;;;32.01;39.32
9343;BME280;4710;51.382;7.244;2022-07-23T11:30:43;99800.17;;;34.09;37.54
9343;BME280;4710;51.382;7.244;2022-07-23T11:33:23;99793.66;;;34.53;36.27
9343;BME280;4710;51.382;7.244;2022-07-23T11:36:03;99801.11;;;32.78;35.69
9343;BME280;4710;51.382;7.244;2022-07-23T11:38:41;99794.49;;;31.85;36.80
9343;BME280;4710;51.382;7.244;2022-07-23T11:41:18;99799.12;;;32.73;36.23
9343;BME280;4710;51.382;7.244;2022-07-23T11:43:55;99799.95;;;33.11;36.25
9343;BME280;4710;51.382;7.244;2022-07-23T11:46:32;99794.45;;;34.46;35.34
9343;BME280;4710;51.382;7.244;2022-07-23T11:49:13;99803.66;;;31.74;37.53
9343;BME280;4710;51.382;7.244;2022-07-23T11:52:02;99807.22;;;31.91;38.11
9343;BME280;4710;51.382;7.244;2022-07-23T11:54:48;99804.05;;;31.80;37.63
9343;BME280;4710;51.382;7.244;2022-07-23T11:57:31;99801.46;;;34.38;35.56
9343;BME280;4710;51.382;7.244;2022-07-23T12:00:12;99800.88;;;34.61;32.97
9343;BME280;4710;51.382;7.244;2022-07-23T12:02:59;99803.91;;;34.11;35.50
9343;BME280;4710;51.382;7.244;2022-07-23T12:05:39;99806.84;;;33.92;36.32
9343;BME280;4710;51.382;7.244;2022-07-23T12:08:20;99799.68;;;33.70;33.43
9343;BME280;4710;51.382;7.244;2022-07-23T12:10:57;99797.33;;;33.94;34.98
9343;BME280;4710;51.382;7.244;2022-07-23T12:13:34;99794.09;;;33.50;35.88
9343;BME280;4710;51.382;7.244;2022-07-23T12:16:15;99804.08;;;31.72;36.77
9343;BME280;4710;51.382;7.244;2022-07-23T12:18:52;99802.70;;;32.10;37.06
9343;BME280;4710;51.382;7.244;2022-07-23T12:21:29;99793.66;;;34.02;35.72
9343;BME280;4710;51.382;7.244;2022-07-23T12:24:07;99802.15;;;32.85;36.43
9343;BME280;4710;51.382;7.244;2022-07-23T12:29:38;99793.94;;;33.03;34.59
9343;BME280;4710;51.382;7.244;2022-07-23T12:32:22;99799.20;;;32.78;34.85
9343;BME280;4710;51.382;7.244;2022-07-23T12:35:06;99789.23;;;32.51;35.48
9343;BME280;4710;51.382;7.244;2022-07-23T12:37:46;99795.03;;;33.42;35.50
9343;BME280;4710;51.382;7.244;2022-07-23T12:40:27;99792.52;;;34.44;34.64
9343;BME280;4710;51.382;7.244;2022-07-23T12:43:08;99792.69;;;34.99;34.42
9343;BME280;4710;51.382;7.244;2022-07-23T12:45:49;99791.09;;;35.58;33.02
9343;BME280;4710;51.382;7.244;2022-07-23T12:48:30;99803.03;;;34.19;33.96
9343;BME280;4710;51.382;7.244;2022-07-23T12:51:27;99801.10;;;34.52;33.86
9343;BME280;4710;51.382;7.244;2022-07-23T12:54:08;99801.86;;;35.17;34.00
9343;BME280;4710;51.382;7.244;2022-07-23T12:56:47;99803.52;;;35.18;34.38
9343;BME280;4710;51.382;7.244;2022-07-23T12:59:24;99803.22;;;35.07;33.78
9343;BME280;4710;51.382;7.244;2022-07-23T13:02:07;99806.71;;;34.67;34.62
9343;BME280;4710;51.382;7.244;2022-07-23T13:04:46;99807.73;;;34.51;33.76
9343;BME280;4710;51.382;7.244;2022-07-23T13:07:23;99810.43;;;34.67;33.80
9343;BME280;4710;51.382;7.244;2022-07-23T13:10:01;99805.25;;;34.04;34.14
9343;BME280;4710;51.382;7.244;2022-07-23T13:12:41;99805.95;;;34.92;33.47
9343;BME280;4710;51.382;7.244;2022-07-23T13:15:21;99806.88;;;34.82;33.69
9343;BME280;4710;51.382;7.244;2022-07-23T13:18:05;99807.82;;;35.32;34.08
9343;BME280;4710;51.382;7.244;2022-07-23T13:20:43;99809.92;;;34.45;33.06
9343;BME280;4710;51.382;7.244;2022-07-23T13:23:23;99803.35;;;36.16;32.58
9343;BME280;4710;51.382;7.244;2022-07-23T13:26:06;99812.61;;;34.30;32.93
9343;BME280;4710;51.382;7.244;2022-07-23T13:28:44;99819.30;;;35.25;33.73
9343;BME280;4710;51.382;7.244;2022-07-23T13:31:21;99811.14;;;35.42;34.03
9343;BME280;4710;51.382;7.244;2022-07-23T13:33:58;99812.53;;;35.56;33.69
9343;BME280;4710;51.382;7.244;2022-07-23T13:36:39;99805.46;;;35.35;32.46
9343;BME280;4710;51.382;7.244;2022-07-23T13:39:16;99813.06;;;33.59;33.68
9343;BME280;4710;51.382;7.244;2022-07-23T13:41:54;99811.88;;;34.85;33.19
9343;BME280;4710;51.382;7.244;2022-07-23T13:44:35;99808.98;;;33.49;33.12
9343;BME280;4710;51.382;7.244;2022-07-23T13:47:15;99801.08;;;34.19;32.81
9343;BME280;4710;51.382;7.244;2022-07-23T13:49:52;99802.70;;;35.37;33.28
9343;BME280;4710;51.382;7.244;2022-07-23T13:52:30;99798.67;;;35.89;31.84
9343;BME280;4710;51.382;7.244;2022-07-23T13:55:10;99800.20;;;35.36;33.13
9343;BME280;4710;51.382;7.244;2022-07-23T13:57:48;99807.75;;;35.07;32.82
9343;BME280;4710;51.382;7.244;2022-07-23T14:00:26;99797.28;;;34.07;33.29
9343;BME280;4710;51.382;7.244;2022-07-23T14:03:09;99795.62;;;34.06;33.77
9343;BME280;4710;51.382;7.244;2022-07-23T14:05:46;99797.03;;;35.18;33.16
9343;BME280;4710;51.382;7.244;2022-07-23T14:08:23;99789.98;;;35.26;32.80
9343;BME280;4710;51.382;7.244;2022-07-23T14:21:30;99789.98;;;33.34;32.54
9343;BME280;4710;51.382;7.244;2022-07-23T14:24:12;99791.74;;;34.28;33.26
9343;BME280;4710;51.382;7.244;2022-07-23T14:26:50;99795.34;;;34.05;32.85
9343;BME280;4710;51.382;7.244;2022-07-23T14:29:31;99787.20;;;35.19;32.00
9343;BME280;4710;51.382;7.244;2022-07-23T14:32:08;99785.92;;;36.10;31.35
9343;BME280;4710;51.382;7.244;2022-07-23T14:34:45;99787.86;;;36.15;31.85
9343;BME280;4710;51.382;7.244;2022-07-23T14:37:25;99791.74;;;35.99;32.24
9343;BME280;4710;51.382;7.244;2022-07-23T14:40:03;99788.67;;;36.18;30.98
9343;BME280;4710;51.382;7.244;2022-07-23T14:42:40;99787.26;;;36.25;32.04
9343;BME280;4710;51.382;7.244;2022-07-23T14:45:21;99784.91;;;36.21;32.50
9343;BME280;4710;51.382;7.244;2022-07-23T14:47:58;99777.30;;;36.19;32.68
9343;BME280;4710;51.382;7.244;2022-07-23T14:50:47;99783.23;;;36.27;31.79
9343;BME280;4710;51.382;7.244;2022-07-23T14:53:25;99776.36;;;36.15;31.66
9343;BME280;4710;51.382;7.244;2022-07-23T14:56:06;99773.29;;;36.16;31.45
9343;BME280;4710;51.382;7.244;2022-07-23T14:58:50;99780.13;;;35.94;31.68
9343;BME280;4710;51.382;7.244;2022-07-23T15:01:35;99780.36;;;36.55;30.33
9343;BME280;4710;51.382;7.244;2022-07-23T15:04:15;99784.13;;;35.00;30.91
9343;BME280;4710;51.382;7.244;2022-07-23T15:06:55;99776.55;;;36.70;30.64
9343;BME280;4710;51.382;7.244;2022-07-23T15:09:33;99773.05;;;36.71;31.30
9343;BME280;4710;51.382;7.244;2022-07-23T15:12:10;99774.13;;;36.56;31.79
9343;BME280;4710;51.382;7.244;2022-07-23T15:14:48;99773.54;;;36.30;31.68
9343;BME280;4710;51.382;7.244;2022-07-23T15:17:25;99767.76;;;36.21;30.69
9343;BME280;4710;51.382;7.244;2022-07-23T15:20:03;99765.08;;;36.33;31.05
9343;BME280;4710;51.382;7.244;2022-07-23T15:22:43;99765.21;;;35.80;30.28
9343;BME280;4710;51.382;7.244;2022-07-23T15:25:24;99758.27;;;35.88;30.78
9343;BME280;4710;51.382;7.244;2022-07-23T15:28:01;99761.33;;;35.79;30.04
9343;BME280;4710;51.382;7.244;2022-07-23T15:30:39;99760.52;;;37.24;30.09
9343;BME280;4710;51.382;7.244;2022-07-23T15:33:16;99753.86;;;37.23;29.49
9343;BME280;4710;51.382;7.244;2022-07-23T15:35:57;99757.54;;;36.75;30.07
9343;BME280;4710;51.382;7.244;2022-07-23T15:38:37;99762.39;;;37.15;29.73
9343;BME280;4710;51.382;7.244;2022-07-23T15:41:18;99768.08;;;37.16;29.52
9343;BME280;4710;51.382;7.244;2022-07-23T15:44:01;99773.90;;;36.42;29.36
9343;BME280;4710;51.382;7.244;2022-07-23T15:46:48;99780.70;;;36.89;30.08
9343;BME280;4710;51.382;7.244;2022-07-23T15:49:26;99775.13;;;37.21;29.90
9343;BME280;4710;51.382;7.244;2022-07-23T15:52:06;99779.22;;;36.26;29.37
9343;BME280;4710;51.382;7.244;2022-07-23T15:54:50;99779.17;;;37.16;29.32
9343;BME280;4710;51.382;7.244;2022-07-23T15:57:30;99770.70;;;37.34;29.85
9343;BME280;4710;51.382;7.244;2022-07-23T16:00:09;99772.97;;;36.30;28.60
9343;BME280;4710;51.382;7.244;2022-07-23T16:02:49;99774.28;;;36.74;30.02
9343;BME280;4710;51.382;7.244;2022-07-23T16:05:27;99768.31;;;36.55;29.54
9343;BME280;4710;51.382;7.244;2022-07-23T16:08:14;99773.19;;;36.94;29.92
9343;BME280;4710;51.382;7.244;2022-07-23T16:10:55;99774.39;;;37.05;29.78
9343;BME280;4710;51.382;7.244;2022-07-23T16:13:36;99768.00;;;37.07;30.15
9343;BME280;4710;51.382;7.244;2022-07-23T16:16:16;99769.90;;;37.50;29.79
9343;BME280;4710;51.382;7.244;2022-07-23T16:18:55;99762.11;;;37.33;29.77
9343;BME280;4710;51.382;7.244;2022-07-23T16:21:35;99764.23;;;36.30;28.82
9343;BME280;4710;51.382;7.244;2022-07-23T16:24:16;99764.31;;;36.07;29.51
9343;BME280;4710;51.382;7.244;2022-07-23T16:26:56;99766.08;;;36.81;28.86
9343;BME280;4710;51.382;7.244;2022-07-23T16:29:36;99763.39;;;36.32;29.21
9343;BME280;4710;51.382;7.244;2022-07-23T16:32:14;99759.77;;;37.31;28.59
9343;BME280;4710;51.382;7.244;2022-07-23T16:34:51;99762.16;;;37.59;29.11
9343;BME280;4710;51.382;7.244;2022-07-23T16:37:31;99753.43;;;37.25;29.17
9343;BME280;4710;51.382;7.244;2022-07-23T16:40:09;99756.39;;;36.59;28.97
9343;BME280;4710;51.382;7.244;2022-07-23T16:42:47;99756.79;;;37.22;29.73
9343;BME280;4710;51.382;7.244;2022-07-23T16:45:24;99759.31;;;37.80;29.47
9343;BME280;4710;51.382;7.244;2022-07-23T16:48:01;99762.92;;;37.53;29.75
9343;BME280;4710;51.382;7.244;2022-07-23T16:50:39;99759.18;;;37.53;28.95
9343;BME280;4710;51.382;7.244;2022-07-23T16:53:22;99758.77;;;37.67;28.74
9343;BME280;4710;51.382;7.244;2022-07-23T16:56:04;99763.28;;;38.24;28.49
9343;BME280;4710;51.382;7.244;2022-07-23T16:58:44;99760.48;;;38.38;28.21
9343;BME280;4710;51.382;7.244;2022-07-23T17:01:24;99765.11;;;36.23;29.80
9343;BME280;4710;51.382;7.244;2022-07-23T17:04:05;99761.41;;;36.93;28.60
9343;BME280;4710;51.382;7.244;2022-07-23T17:06:42;99759.65;;;37.43;28.91
9343;BME280;4710;51.382;7.244;2022-07-23T17:09:22;99756.73;;;37.30;29.81
9343;BME280;4710;51.382;7.244;2022-07-23T17:12:04;99765.86;;;37.13;29.13
9343;BME280;4710;51.382;7.244;2022-07-23T17:14:41;99763.35;;;37.67;28.96
9343;BME280;4710;51.382;7.244;2022-07-23T17:17:19;99765.78;;;37.73;28.77
9343;BME280;4710;51.382;7.244;2022-07-23T17:19:56;99763.72;;;37.72;28.38
9343;BME280;4710;51.382;7.244;2022-07-23T17:22:37;99758.09;;;38.06;28.68
9343;BME280;4710;51.382;7.244;2022-07-23T17:25:18;99771.78;;;37.97;28.58
9343;BME280;4710;51.382;7.244;2022-07-23T17:27:58;99768.59;;;38.09;28.56
9343;BME280;4710;51.382;7.244;2022-07-23T17:30:42;99770.51;;;37.99;28.84
9343;BME280;4710;51.382;7.244;2022-07-23T17:33:20;99769.84;;;37.55;29.03
9343;BME280;4710;51.382;7.244;2022-07-23T17:35:58;99768.94;;;37.90;29.23
9343;BME280;4710;51.382;7.244;2022-07-23T17:38:35;99770.14;;;36.96;29.47
9343;BME280;4710;51.382;7.244;2022-07-23T17:41:12;99773.27;;;36.82;28.65
9343;BME280;4710;51.382;7.244;2022-07-23T17:43:52;99761.95;;;37.34;29.32
9343;BME280;4710;51.382;7.244;2022-07-23T17:46:30;99757.27;;;37.32;29.20
9343;BME280;4710;51.382;7.244;2022-07-23T17:49:10;99762.86;;;37.41;28.86
9343;BME280;4710;51.382;7.244;2022-07-23T17:51:50;99765.86;;;37.66;28.66
9343;BME280;4710;51.382;7.244;2022-07-23T17:54:31;99765.86;;;37.49;28.78
9343;BME280;4710;51.382;7.244;2022-07-23T17:57:12;99769.38;;;37.10;29.31
9343;BME280;4710;51.382;7.244;2022-07-23T17:59:51;99768.95;;;37.45;29.29
9343;BME280;4710;51.382;7.244;2022-07-23T18:02:31;99768.41;;;37.10;29.57
9343;BME280;4710;51.382;7.244;2022-07-23T18:05:09;99767.45;;;37.22;29.57
9343;BME280;4710;51.382;7.244;2022-07-23T18:07:50;99772.99;;;37.24;29.75
9343;BME280;4710;51.382;7.244;2022-07-23T18:10:31;99768.52;;;37.28;29.47
9343;BME280;4710;51.382;7.244;2022-07-23T18:13:14;99767.92;;;37.34;29.17
9343;BME280;4710;51.382;7.244;2022-07-23T18:15:51;99781.73;;;37.58;29.01
9343;BME280;4710;51.382;7.244;2022-07-23T18:18:29;99772.28;;;37.42;28.82
9343;BME280;4710;51.382;7.244;2022-07-23T18:21:23;99779.37;;;37.61;28.71
9343;BME280;4710;51.382;7.244;2022-07-23T18:24:01;99778.31;;;37.35;29.01
9343;BME280;4710;51.382;7.244;2022-07-23T18:26:38;99782.86;;;37.38;29.14
9343;BME280;4710;51.382;7.244;2022-07-23T18:29:19;99779.97;;;37.36;28.81
9343;BME280;4710;51.382;7.244;2022-07-23T18:31:59;99777.80;;;37.31;28.88
9343;BME280;4710;51.382;7.244;2022-07-23T18:34:40;99779.75;;;37.30;29.01